Time;durP1;ratioP1;P1;durP2;ratioP2;P2;SDS_P1;SDS_P2;PMS_P1;PMS_P2;Temp;Humidity;BMP_temperature;BMP_pressure;BME280_temperature;BME280_humidity;BME280_pressure;Samples;Min_cycle;Max_cycle;Signal;HPM_P1;HPM_P2
2022/08/25 00:01:42;;;;;;;11.25;10.35;;;22.80;99.90;;;;;;6339560;22;20002;-78
2022/08/25 00:04:12;;;;;;;12.45;11.05;;;22.70;99.90;;;;;;6338350;22;20006;-78
2022/08/25 00:06:40;;;;;;;12.38;11.23;;;22.70;99.90;;;;;;6339096;22;20053;-78
2022/08/25 00:09:07;;;;;;;12.20;9.60;;;22.70;99.90;;;;;;6338722;22;20446;-78
2022/08/25 00:11:34;;;;;;;10.80;9.88;;;22.70;99.90;;;;;;6337472;22;19991;-78
2022/08/25 00:14:03;;;;;;;12.38;11.48;;;22.60;99.90;;;;;;6339178;22;20268;-77
2022/08/25 00:16:32;;;;;;;13.48;10.93;;;22.60;99.90;;;;;;6338777;22;20002;-78
2022/08/25 00:19:04;;;;;;;12.85;11.65;;;22.60;99.90;;;;;;6338422;22;20101;-78
2022/08/25 00:21:30;;;;;;;10.82;10.02;;;22.50;99.90;;;;;;6339100;22;20044;-79
2022/08/25 00:23:57;;;;;;;12.40;11.50;;;22.50;99.90;;;;;;6339387;22;20034;-78
2022/08/25 00:26:25;;;;;;;10.95;10.10;;;22.60;99.90;;;;;;6337560;22;20076;-79
2022/08/25 00:28:52;;;;;;;12.98;11.88;;;22.50;99.90;;;;;;6338983;22;20017;-78
2022/08/25 00:31:19;;;;;;;12.32;11.18;;;22.50;99.90;;;;;;6337220;22;20022;-78
2022/08/25 00:33:46;;;;;;;12.13;11.23;;;22.50;99.90;;;;;;6338755;22;20003;-78
2022/08/25 00:36:14;;;;;;;11.55;10.48;;;22.40;99.90;;;;;;6338585;22;20010;-77
2022/08/25 00:38:41;;;;;;;13.88;12.60;;;22.40;99.90;;;;;;6337525;22;20023;-78
2022/08/25 00:41:10;;;;;;;11.45;10.63;;;22.40;99.90;;;;;;6338946;22;20003;-78
2022/08/25 00:43:50;;;;;;;11.93;11.13;;;22.40;99.90;;;;;;6338827;22;20437;-78
2022/08/25 00:46:19;;;;;;;11.98;10.80;;;22.30;99.90;;;;;;6337612;22;20018;-78
2022/08/25 00:48:49;;;;;;;12.30;11.10;;;22.30;99.90;;;;;;6338816;22;20006;-78
2022/08/25 00:51:20;;;;;;;14.48;13.18;;;22.30;99.90;;;;;;6338323;22;20013;-78
2022/08/25 00:53:46;;;;;;;13.02;11.63;;;22.30;99.90;;;;;;6338058;22;20007;-78
2022/08/25 00:56:13;;;;;;;12.98;11.70;;;22.20;99.90;;;;;;6338060;22;20014;-80
2022/08/25 00:58:40;;;;;;;14.45;13.15;;;22.20;99.90;;;;;;6339068;22;20005;-79
2022/08/25 01:01:06;;;;;;;15.18;13.82;;;22.20;99.90;;;;;;6337949;22;20005;-79
2022/08/25 01:03:32;;;;;;;13.60;11.48;;;22.10;99.90;;;;;;6338158;22;20030;-78
2022/08/25 01:06:00;;;;;;;11.90;10.80;;;22.10;99.90;;;;;;6338660;22;20006;-78
2022/08/25 01:08:28;;;;;;;11.30;10.27;;;22.10;99.90;;;;;;6338500;22;20018;-78
2022/08/25 01:10:56;;;;;;;12.32;11.13;;;22.00;99.90;;;;;;6338850;22;20045;-78
2022/08/25 01:13:52;;;;;;;11.52;10.73;;;22.00;99.90;;;;;;6338539;22;19998;-78
2022/08/25 01:16:17;;;;;;;17.17;14.05;;;22.00;99.90;;;;;;6318784;22;20078;-78
2022/08/25 01:18:45;;;;;;;12.55;11.35;;;21.90;99.90;;;;;;6338897;22;20034;-77
2022/08/25 01:21:11;;;;;;;11.57;10.77;;;21.90;99.90;;;;;;6337154;22;20079;-78
2022/08/25 01:23:37;;;;;;;11.60;10.60;;;21.90;99.90;;;;;;6338651;22;20082;-78
2022/08/25 01:26:12;;;;;;;14.18;12.82;;;21.90;99.90;;;;;;6338223;22;20338;-79
2022/08/25 01:29:19;;;;;;;11.85;10.88;;;21.90;99.90;;;;;;6337912;22;20300;-78
2022/08/25 01:31:25;;;;;;;13.15;11.35;;;21.90;99.90;;;;;;6337709;22;20415;-80
2022/08/25 01:33:50;;;;;;;13.18;11.98;;;21.80;99.90;;;;;;6337962;22;20486;-79
2022/08/25 01:36:20;;;;;;;13.52;12.32;;;21.80;99.90;;;;;;6337026;22;20033;-78
2022/08/25 01:38:46;;;;;;;13.25;12.07;;;21.80;99.90;;;;;;6338451;22;20002;-79
2022/08/25 01:41:15;;;;;;;12.73;11.65;;;21.70;99.90;;;;;;6337690;22;20029;-79
2022/08/25 01:43:41;;;;;;;11.55;10.55;;;21.80;99.90;;;;;;6337811;22;20384;-79
2022/08/25 01:46:06;;;;;;;12.75;11.63;;;21.70;99.90;;;;;;6338356;22;20022;-78
2022/08/25 01:48:32;;;;;;;13.45;12.38;;;21.70;99.90;;;;;;6337603;22;20011;-79
2022/08/25 01:50:58;;;;;;;13.40;12.10;;;21.70;99.90;;;;;;6337188;22;19999;-78
2022/08/25 01:53:28;;;;;;;12.25;11.15;;;21.70;99.90;;;;;;6338162;22;20011;-78
2022/08/25 01:56:00;;;;;;;12.55;11.45;;;21.70;99.90;;;;;;6337225;22;20055;-78
2022/08/25 01:58:35;;;;;;;11.32;10.52;;;21.60;99.90;;;;;;6337577;22;20028;-78
2022/08/25 02:01:05;;;;;;;12.80;11.73;;;21.60;99.90;;;;;;6338233;22;20074;-78
2022/08/25 02:03:34;;;;;;;11.50;10.50;;;21.60;99.90;;;;;;6337381;22;20003;-79
2022/08/25 02:06:00;;;;;;;11.85;10.75;;;21.50;99.90;;;;;;6337788;22;20044;-77
2022/08/25 02:08:25;;;;;;;11.85;10.90;;;21.50;99.90;;;;;;6337950;22;20019;-77
2022/08/25 02:10:54;;;;;;;11.80;10.70;;;21.50;99.90;;;;;;6337341;22;20419;-78
2022/08/25 02:13:20;;;;;;;12.27;10.98;;;21.50;99.90;;;;;;6337836;22;20677;-78
2022/08/25 02:15:53;;;;;;;12.38;11.38;;;21.40;99.90;;;;;;6338183;22;20006;-78
2022/08/25 02:18:19;;;;;;;11.50;10.60;;;21.40;99.90;;;;;;6337004;22;20003;-79
2022/08/25 02:20:45;;;;;;;10.80;9.73;;;21.40;99.90;;;;;;6338053;22;20014;-77
2022/08/25 02:23:11;;;;;;;12.30;11.10;;;21.40;99.90;;;;;;6337543;22;20010;-77
2022/08/25 02:25:38;;;;;;;10.57;9.70;;;21.30;99.90;;;;;;6337255;22;20319;-79
2022/08/25 02:28:05;;;;;;;11.25;10.35;;;21.30;99.90;;;;;;6337245;22;20018;-78
2022/08/25 02:30:31;;;;;;;12.65;11.38;;;21.40;99.90;;;;;;6337464;22;20415;-80
2022/08/25 02:32:57;;;;;;;12.90;11.80;;;21.30;99.90;;;;;;6337259;22;20063;-78
2022/08/25 02:35:23;;;;;;;10.85;10.15;;;21.30;99.90;;;;;;6337829;22;20037;-77
2022/08/25 02:37:52;;;;;;;11.50;10.70;;;21.20;99.90;;;;;;6337660;22;20499;-77
2022/08/25 02:40:20;;;;;;;11.73;10.60;;;21.20;99.90;;;;;;6337086;22;20427;-78
2022/08/25 02:42:46;;;;;;;11.00;10.02;;;21.20;99.90;;;;;;6337950;22;20006;-78
2022/08/25 02:45:13;;;;;;;10.55;9.75;;;21.20;99.90;;;;;;6336760;22;19998;-78
2022/08/25 02:47:40;;;;;;;11.52;10.48;;;21.20;99.90;;;;;;6338027;22;20082;-79
2022/08/25 02:50:07;;;;;;;11.50;10.63;;;21.10;99.90;;;;;;6338245;22;20002;-78
2022/08/25 02:52:34;;;;;;;10.98;10.15;;;21.10;99.90;;;;;;6336578;22;20010;-78
2022/08/25 02:55:03;;;;;;;11.50;10.55;;;21.10;99.90;;;;;;6337516;22;19999;-78
2022/08/25 02:57:29;;;;;;;10.43;9.40;;;21.00;99.90;;;;;;6338013;22;20007;-77
2022/08/25 02:59:56;;;;;;;10.85;9.90;;;21.00;99.90;;;;;;6337067;22;19999;-77
2022/08/25 03:02:23;;;;;;;10.13;9.40;;;21.00;99.90;;;;;;6340901;22;20029;-77
2022/08/25 03:04:50;;;;;;;9.70;8.85;;;21.00;99.90;;;;;;6344598;22;20003;-77
2022/08/25 03:07:17;;;;;;;10.63;9.57;;;21.00;99.90;;;;;;6343313;22;20063;-78
2022/08/25 03:09:43;;;;;;;8.35;7.75;;;21.00;99.90;;;;;;6351191;22;20091;-78
2022/08/25 03:12:09;;;;;;;9.65;8.90;;;21.00;99.90;;;;;;6351918;22;20003;-78
2022/08/25 03:14:35;;;;;;;9.48;8.57;;;21.00;99.90;;;;;;6353918;22;20025;-78
2022/08/25 03:17:01;;;;;;;8.60;7.72;;;21.00;99.90;;;;;;6349126;22;20062;-77
2022/08/25 03:19:26;;;;;;;8.23;7.63;;;21.00;99.90;;;;;;6348157;22;20003;-77
2022/08/25 03:21:55;;;;;;;8.63;7.93;;;21.00;99.90;;;;;;6348116;22;20002;-78
2022/08/25 03:24:20;;;;;;;8.63;7.70;;;21.00;99.90;;;;;;6344328;22;20003;-77
2022/08/25 03:26:52;;;;;;;8.98;8.20;;;21.00;99.90;;;;;;6340303;22;20026;-79
2022/08/25 03:29:18;;;;;;;8.82;7.88;;;21.00;99.90;;;;;;6339331;22;20007;-79
2022/08/25 03:31:44;;;;;;;8.82;8.23;;;21.00;99.90;;;;;;6339678;22;20091;-79
2022/08/25 03:34:15;;;;;;;8.82;8.02;;;21.00;99.90;;;;;;6337921;22;20003;-79
2022/08/25 03:36:42;;;;;;;7.63;7.03;;;21.00;99.90;;;;;;6339232;22;20003;-78
2022/08/25 03:39:07;;;;;;;9.80;8.90;;;21.00;99.90;;;;;;6338991;22;20003;-79
2022/08/25 03:41:33;;;;;;;8.98;8.18;;;20.90;99.90;;;;;;6338513;22;20437;-78
2022/08/25 03:44:00;;;;;;;9.25;8.40;;;21.00;99.90;;;;;;6339223;22;20010;-77
2022/08/25 03:46:34;;;;;;;8.50;7.72;;;20.90;99.90;;;;;;6338579;22;19999;-78
2022/08/25 03:49:01;;;;;;;9.23;8.40;;;21.00;99.90;;;;;;6338243;22;20500;-78
2022/08/25 03:51:46;;;;;;;9.43;8.60;;;20.90;99.90;;;;;;6340336;22;20427;-77
2022/08/25 03:54:13;;;;;;;9.85;8.95;;;20.90;99.90;;;;;;6339235;22;20013;-78
2022/08/25 03:56:39;;;;;;;10.63;8.25;;;20.90;99.90;;;;;;6338817;22;19995;-79
2022/08/25 03:59:07;;;;;;;9.30;8.43;;;20.90;99.90;;;;;;6339083;22;20002;-78
2022/08/25 04:01:34;;;;;;;10.32;8.93;;;20.90;99.90;;;;;;6338820;22;20003;-79
2022/08/25 04:04:00;;;;;;;10.10;9.10;;;20.80;99.90;;;;;;6338003;22;20373;-80
2022/08/25 04:06:25;;;;;;;9.35;8.68;;;20.80;99.90;;;;;;6338404;22;20002;-78
2022/08/25 04:08:54;;;;;;;9.85;8.70;;;20.80;99.90;;;;;;6338392;22;20082;-78
2022/08/25 04:11:21;;;;;;;9.77;8.50;;;20.80;99.90;;;;;;6337917;22;19995;-78
2022/08/25 04:13:48;;;;;;;9.70;8.80;;;20.80;99.90;;;;;;6338905;22;20049;-78
2022/08/25 04:16:18;;;;;;;8.82;8.02;;;20.80;99.90;;;;;;6338596;22;20011;-77
2022/08/25 04:18:46;;;;;;;11.77;9.50;;;20.80;99.90;;;;;;6338909;22;20003;-78
2022/08/25 04:21:12;;;;;;;9.82;8.93;;;20.80;99.90;;;;;;6338439;22;20006;-77
2022/08/25 04:23:41;;;;;;;8.63;7.82;;;20.80;99.90;;;;;;6338045;22;20015;-77
2022/08/25 04:26:23;;;;;;;9.45;8.60;;;20.80;99.90;;;;;;6338561;22;20011;-77
2022/08/25 04:28:49;;;;;;;10.05;8.50;;;20.80;99.90;;;;;;6338642;22;20021;-77
2022/08/25 04:31:17;;;;;;;10.63;9.27;;;20.80;99.90;;;;;;6337387;22;20094;-79
2022/08/25 04:33:45;;;;;;;10.52;9.35;;;20.80;99.90;;;;;;6338784;22;20002;-79
2022/08/25 04:36:11;;;;;;;11.23;9.05;;;20.80;99.90;;;;;;6338581;22;20053;-78
2022/08/25 04:38:37;;;;;;;10.00;9.05;;;20.80;99.90;;;;;;6337632;22;19999;-78
2022/08/25 04:41:05;;;;;;;9.90;8.13;;;20.80;99.90;;;;;;6338646;22;20006;-77
2022/08/25 04:43:32;;;;;;;11.00;9.90;;;20.80;99.90;;;;;;6338133;22;20006;-78
2022/08/25 04:45:58;;;;;;;10.90;9.93;;;20.80;99.90;;;;;;6337529;22;20431;-78
2022/08/25 04:48:24;;;;;;;10.00;9.05;;;20.90;99.90;;;;;;6337774;22;20445;-78
2022/08/25 04:50:50;;;;;;;10.93;9.50;;;20.80;99.90;;;;;;6338126;22;20093;-79
2022/08/25 04:53:16;;;;;;;12.27;10.45;;;20.80;99.90;;;;;;6337331;22;20032;-77
2022/08/25 04:55:45;;;;;;;12.05;10.30;;;20.80;99.90;;;;;;6338684;22;19994;-77
2022/08/25 04:58:13;;;;;;;10.73;9.65;;;20.80;99.90;;;;;;6338311;22;20006;-78
2022/08/25 05:00:39;;;;;;;15.13;10.30;;;20.90;99.90;;;;;;6338186;22;20002;-78
2022/08/25 05:03:05;;;;;;;10.70;9.68;;;20.80;99.90;;;;;;6339152;22;20003;-78
2022/08/25 05:05:35;;;;;;;11.63;10.50;;;20.80;99.90;;;;;;6338393;22;20002;-78
2022/08/25 05:08:00;;;;;;;11.00;10.05;;;20.80;99.90;;;;;;6338166;22;20015;-79
2022/08/25 05:10:26;;;;;;;12.80;9.65;;;20.80;99.90;;;;;;6336968;22;20415;-77
2022/08/25 05:12:52;;;;;;;10.18;9.25;;;20.80;99.90;;;;;;6336911;22;20023;-78
2022/08/25 05:18:02;;;;;;;16.88;10.10;;;20.90;99.90;;;;;;6337204;22;20396;-77
2022/08/25 05:20:29;;;;;;;11.55;9.10;;;20.90;99.90;;;;;;6336338;22;20022;-78
2022/08/25 05:22:55;;;;;;;9.57;8.68;;;20.90;99.90;;;;;;6337847;22;19999;-79
2022/08/25 05:25:21;;;;;;;11.82;9.88;;;20.90;99.90;;;;;;6337460;22;20118;-77
2022/08/25 05:27:46;;;;;;;9.93;9.02;;;20.90;99.90;;;;;;6336174;22;20054;-78
2022/08/25 05:30:12;;;;;;;11.07;9.98;;;21.00;99.90;;;;;;6336864;22;20656;-79
2022/08/25 05:32:38;;;;;;;12.63;9.70;;;21.00;99.90;;;;;;6337511;22;20022;-78
2022/08/25 05:35:05;;;;;;;12.10;10.73;;;21.00;99.90;;;;;;6337845;22;19999;-78
2022/08/25 05:37:31;;;;;;;10.60;9.57;;;21.10;99.90;;;;;;6338911;22;20371;-77
2022/08/25 05:39:57;;;;;;;11.25;10.18;;;21.10;99.90;;;;;;6337991;22;19999;-78
2022/08/25 05:42:27;;;;;;;10.93;10.02;;;21.20;99.90;;;;;;6336321;22;20449;-78
2022/08/25 05:44:53;;;;;;;10.93;9.05;;;21.20;99.90;;;;;;6310145;22;19995;-77
2022/08/25 05:47:19;;;;;;;11.25;10.13;;;21.30;99.90;;;;;;6336922;22;20014;-79
2022/08/25 05:49:44;;;;;;;10.90;9.80;;;21.40;99.90;;;;;;6337104;22;19999;-78
2022/08/25 05:52:11;;;;;;;11.65;10.25;;;21.50;99.90;;;;;;6337757;22;20337;-77
2022/08/25 05:54:38;;;;;;;10.02;9.13;;;21.50;99.90;;;;;;6337335;22;20327;-77
2022/08/25 05:57:05;;;;;;;12.55;9.77;;;21.60;99.90;;;;;;6338758;22;20003;-77
2022/08/25 05:59:31;;;;;;;9.95;9.05;;;21.80;99.90;;;;;;6339449;22;20007;-77
2022/08/25 06:04:40;;;;;;;11.45;10.10;;;22.00;99.90;;;;;;6337336;22;20006;-79
2022/08/25 06:07:06;;;;;;;9.82;8.95;;;22.10;99.90;;;;;;6336575;22;20331;-77
2022/08/25 06:09:32;;;;;;;10.98;9.88;;;22.20;99.90;;;;;;6336543;22;20760;-77
2022/08/25 06:11:57;;;;;;;10.82;9.73;;;22.20;99.90;;;;;;6338122;22;20078;-78
2022/08/25 06:14:23;;;;;;;11.35;10.45;;;22.40;99.90;;;;;;6337326;22;20059;-77
2022/08/25 06:16:50;;;;;;;10.32;9.40;;;22.40;99.90;;;;;;6339209;22;20097;-77
2022/08/25 06:19:17;;;;;;;13.77;9.93;;;22.50;99.90;;;;;;6340420;22;20002;-78
2022/08/25 06:21:43;;;;;;;14.30;10.40;;;22.50;99.90;;;;;;6339393;22;20028;-78
2022/08/25 06:24:09;;;;;;;11.52;10.48;;;22.60;99.90;;;;;;6339825;22;20403;-78
2022/08/25 06:26:35;;;;;;;10.48;9.43;;;22.60;99.90;;;;;;6340550;22;20034;-78
2022/08/25 06:29:01;;;;;;;10.80;9.77;;;22.60;99.90;;;;;;6340713;22;20010;-77
2022/08/25 06:31:26;;;;;;;11.45;10.35;;;22.60;99.90;;;;;;6339392;22;20005;-78
2022/08/25 06:33:52;;;;;;;11.73;8.40;;;22.60;99.90;;;;;;6340775;22;20026;-77
2022/08/25 06:36:20;;;;;;;10.70;9.65;;;22.60;99.90;;;;;;6341696;22;19995;-77
2022/08/25 06:38:46;;;;;;;21.92;10.77;;;22.60;99.90;;;;;;6343019;22;20002;-77
2022/08/25 06:41:12;;;;;;;16.23;12.48;;;22.50;99.90;;;;;;6341524;22;20438;-77
2022/08/25 06:43:40;;;;;;;15.88;12.10;;;22.50;99.90;;;;;;6340974;22;20431;-77
2022/08/25 06:46:13;;;;;;;13.02;11.77;;;22.50;99.90;;;;;;6341228;22;19995;-77
2022/08/25 06:48:39;;;;;;;15.43;11.82;;;22.40;99.90;;;;;;6350911;22;20010;-78
2022/08/25 06:51:11;;;;;;;12.60;11.45;;;22.60;99.90;;;;;;6355243;22;19991;-77
2022/08/25 06:53:37;;;;;;;15.77;10.60;;;22.60;99.90;;;;;;6354351;22;20026;-77
2022/08/25 06:56:03;;;;;;;14.52;10.32;;;22.70;99.90;;;;;;6353699;22;20032;-77
2022/08/25 06:58:29;;;;;;;14.23;10.38;;;22.80;99.90;;;;;;6357282;22;20273;-78
2022/08/25 07:00:55;;;;;;;10.85;9.85;;;22.90;99.90;;;;;;6350934;22;19987;-76
2022/08/25 07:03:20;;;;;;;12.88;9.70;;;22.90;99.90;;;;;;6354840;22;20022;-77
2022/08/25 07:05:53;;;;;;;11.05;9.98;;;23.20;99.90;;;;;;6356204;22;20025;-79
2022/08/25 07:08:19;;;;;;;10.52;9.30;;;23.30;99.90;;;;;;6357017;22;20015;-78
2022/08/25 07:10:45;;;;;;;14.65;9.43;;;23.40;99.90;;;;;;6358924;22;20014;-78
2022/08/25 07:13:11;;;;;;;15.95;8.90;;;23.40;99.90;;;;;;6357859;22;20034;-78
2022/08/25 07:15:41;;;;;;;16.27;9.13;;;23.50;99.90;;;;;;6345326;22;20002;-77
2022/08/25 07:18:07;;;;;;;13.63;9.95;;;23.50;99.90;;;;;;6339880;22;20349;-77
2022/08/25 07:20:35;;;;;;;13.15;8.82;;;23.40;99.90;;;;;;6340566;22;19995;-77
2022/08/25 07:23:01;;;;;;;11.85;10.55;;;23.40;99.90;;;;;;6340473;22;20003;-78
2022/08/25 07:25:27;;;;;;;11.93;8.85;;;23.40;99.90;;;;;;6343499;22;20288;-78
2022/08/25 07:27:53;;;;;;;11.40;8.55;;;23.40;99.90;;;;;;6339737;22;20014;-78
2022/08/25 07:30:18;;;;;;;13.68;8.85;;;23.40;99.90;;;;;;6338583;22;20008;-76
2022/08/25 07:32:44;;;;;;;10.20;7.97;;;23.40;99.90;;;;;;6342244;22;20078;-79
2022/08/25 07:35:17;;;;;;;11.73;10.10;;;23.50;99.90;;;;;;6339537;22;20309;-79
2022/08/25 07:37:46;;;;;;;9.50;8.52;;;23.50;99.90;;;;;;6341558;22;20033;-79
2022/08/25 07:40:19;;;;;;;8.93;8.07;;;23.60;99.90;;;;;;6339276;22;20344;-78
2022/08/25 07:42:46;;;;;;;9.60;6.97;;;23.70;99.90;;;;;;6340142;22;20007;-78
2022/08/25 07:45:13;;;;;;;11.10;7.45;;;23.80;99.90;;;;;;6339395;22;20007;-79
2022/08/25 07:47:39;;;;;;;12.38;7.25;;;23.90;99.90;;;;;;6340541;22;20058;-79
2022/08/25 07:50:10;;;;;;;9.93;6.10;;;24.00;99.90;;;;;;6340475;22;20010;-77
2022/08/25 07:52:37;;;;;;;15.95;6.18;;;24.00;99.90;;;;;;6341661;22;19995;-80
2022/08/25 07:55:03;;;;;;;13.25;6.20;;;24.10;99.90;;;;;;6349096;22;20003;-79
2022/08/25 07:57:29;;;;;;;7.82;5.28;;;24.20;99.90;;;;;;6355319;22;20002;-78
2022/08/25 07:59:55;;;;;;;25.27;7.38;;;24.30;99.90;;;;;;6354490;22;20003;-76
2022/08/25 08:02:20;;;;;;;8.45;6.15;;;24.40;99.90;;;;;;6350408;22;19998;-76
2022/08/25 08:04:50;;;;;;;10.02;5.43;;;24.40;99.90;;;;;;6356927;22;20014;-76
2022/08/25 08:07:18;;;;;;;11.30;5.00;;;24.50;99.90;;;;;;6356688;22;19983;-76
2022/08/25 08:09:44;;;;;;;7.78;4.90;;;24.50;99.90;;;;;;6357240;22;20105;-77
2022/08/25 08:12:10;;;;;;;12.90;6.18;;;24.70;99.90;;;;;;6348691;22;20323;-77
2022/08/25 08:14:36;;;;;;;8.48;5.75;;;24.80;99.90;;;;;;6339811;22;19999;-77
2022/08/25 08:17:08;;;;;;;7.85;5.18;;;24.80;99.90;;;;;;6335275;22;20048;-77
2022/08/25 08:19:34;;;;;;;10.95;5.85;;;24.90;99.90;;;;;;6337699;22;20013;-79
2022/08/25 08:22:02;;;;;;;10.73;5.65;;;25.00;99.90;;;;;;6337027;22;20039;-79
2022/08/25 08:24:33;;;;;;;11.20;6.18;;;25.10;99.90;;;;;;6338772;22;20006;-78
2022/08/25 08:26:59;;;;;;;10.38;5.20;;;25.10;99.90;;;;;;6339300;22;20033;-78
2022/08/25 08:29:24;;;;;;;8.50;5.10;;;25.10;99.90;;;;;;6338940;22;20455;-77
2022/08/25 08:31:50;;;;;;;9.60;5.43;;;25.20;99.90;;;;;;6338138;22;20078;-72
2022/08/25 08:34:16;;;;;;;7.15;5.10;;;25.30;99.90;;;;;;6337699;22;20007;-78
2022/08/25 08:36:42;;;;;;;4.97;4.47;;;25.30;99.90;;;;;;6336775;22;20006;-78
2022/08/25 08:39:08;;;;;;;7.43;4.05;;;25.40;99.90;;;;;;6339494;22;20514;-79
2022/08/25 08:44:59;;;;;;;8.38;4.47;;;25.60;99.90;;;;;;6338508;22;20010;-79
2022/08/25 08:47:43;;;;;;;9.60;4.53;;;25.60;99.90;;;;;;6338703;22;20031;-76
2022/08/25 08:50:28;;;;;;;8.43;4.90;;;25.70;99.90;;;;;;6338365;22;20003;-77
2022/08/25 08:53:18;;;;;;;8.15;4.57;;;25.80;99.90;;;;;;6337246;22;20003;-76
2022/08/25 08:55:56;;;;;;;4.93;4.43;;;25.90;99.90;;;;;;6339042;22;20009;-77
2022/08/25 08:58:24;;;;;;;6.95;4.25;;;26.00;99.90;;;;;;6337341;22;20010;-77
2022/08/25 09:00:54;;;;;;;7.88;4.53;;;26.10;99.90;;;;;;6338700;22;20069;-77
2022/08/25 09:03:35;;;;;;;8.57;3.97;;;26.20;99.90;;;;;;6338599;22;19998;-79
2022/08/25 09:06:29;;;;;;;6.72;4.88;;;26.20;99.40;;;;;;6337940;22;20006;-77
2022/08/25 09:08:57;;;;;;;5.90;4.25;;;26.20;98.80;;;;;;6326124;22;20339;-74
2022/08/25 09:11:29;;;;;;;8.88;3.65;;;26.40;98.90;;;;;;6335162;22;20013;-75
2022/08/25 09:14:11;;;;;;;5.80;4.20;;;26.50;98.80;;;;;;6329415;22;20009;-77
2022/08/25 09:17:00;;;;;;;9.63;4.03;;;26.60;98.70;;;;;;6330544;22;20109;-76
2022/08/25 09:20:04;;;;;;;14.60;4.55;;;26.70;98.70;;;;;;6332921;22;20006;-75
2022/08/25 09:22:50;;;;;;;6.70;3.30;;;26.90;97.80;;;;;;6333916;22;20007;-71
2022/08/25 09:25:40;;;;;;;3.70;3.40;;;27.00;97.70;;;;;;6333937;22;20056;-78
2022/08/25 09:28:22;;;;;;;6.70;3.50;;;27.10;98.00;;;;;;6334534;22;20021;-79
2022/08/25 09:31:02;;;;;;;9.25;3.45;;;27.10;97.60;;;;;;6336626;22;20052;-78
2022/08/25 09:33:30;;;;;;;;;;;27.20;97.40;;;;;;6336140;22;20003;-75
2022/08/25 09:35:56;;;;;;;12.75;3.80;;;27.30;97.10;;;;;;6336414;22;20243;-76
2022/08/25 09:38:24;;;;;;;7.22;2.90;;;27.40;97.10;;;;;;6335916;22;20003;-77
2022/08/25 09:40:54;;;;;;;4.57;3.13;;;27.50;96.80;;;;;;6335252;22;20022;-77
2022/08/25 09:43:30;;;;;;;;;;;27.70;95.60;;;;;;6334131;22;20012;-75
2022/08/25 09:46:12;;;;;;;5.25;3.08;;;27.80;95.40;;;;;;6336557;22;20219;-76
2022/08/25 09:48:52;;;;;;;6.75;3.30;;;27.80;95.20;;;;;;6333284;22;20007;-77
2022/08/25 09:51:20;;;;;;;;;;;27.90;95.10;;;;;;6336114;22;20006;-77
2022/08/25 09:53:59;;;;;;;3.22;2.55;;;27.90;94.90;;;;;;6329006;22;19909;-76
2022/08/25 09:56:28;;;;;;;7.65;2.83;;;27.80;94.80;;;;;;6328019;22;20582;-74
2022/08/25 09:59:16;;;;;;;5.82;2.65;;;27.80;94.80;;;;;;6306709;22;20069;-75
2022/08/25 10:01:48;;;;;;;3.97;2.40;;;27.70;94.50;;;;;;6307323;22;20335;-75
2022/08/25 10:04:14;;;;;;;3.83;2.63;;;27.70;94.30;;;;;;6335459;22;20022;-76
2022/08/25 10:06:45;;;;;;;4.90;2.95;;;27.70;94.50;;;;;;6336128;22;20002;-76
2022/08/25 10:09:29;;;;;;;8.15;3.38;;;27.70;94.50;;;;;;6330621;22;20368;-76
2022/08/25 10:11:55;;;;;;;7.20;3.00;;;27.80;94.60;;;;;;6334865;22;20427;-76
2022/08/25 10:14:37;;;;;;;11.85;3.70;;;27.90;94.70;;;;;;6335442;22;20007;-76
2022/08/25 10:17:29;;;;;;;6.07;3.20;;;28.00;94.10;;;;;;6334632;22;20018;-75
2022/08/25 10:20:16;;;;;;;4.68;2.83;;;28.20;93.90;;;;;;6333460;22;20002;-76
2022/08/25 10:22:42;;;;;;;2.97;2.50;;;28.30;94.00;;;;;;6334107;22;20075;-74
2022/08/25 10:25:11;;;;;;;7.85;2.80;;;28.50;93.20;;;;;;6334856;22;19999;-75
2022/08/25 10:27:51;;;;;;;5.32;2.83;;;28.70;92.80;;;;;;6332893;22;20010;-76
2022/08/25 10:30:24;;;;;;;7.03;2.78;;;29.00;93.00;;;;;;6333314;22;20331;-76
2022/08/25 10:33:09;;;;;;;5.80;2.75;;;29.20;92.60;;;;;;6334750;22;19999;-76
2022/08/25 10:35:57;;;;;;;5.57;2.97;;;29.40;92.30;;;;;;6308276;22;19999;-75
2022/08/25 10:38:37;;;;;;;3.85;3.00;;;29.50;92.30;;;;;;6335831;22;20419;-76
2022/08/25 10:41:44;;;;;;;8.02;3.17;;;29.50;92.00;;;;;;6336987;22;20418;-78
2022/08/25 10:48:11;;;;;;;5.35;2.65;;;29.60;91.90;;;;;;6325992;22;20071;-75
2022/08/25 10:50:55;;;;;;;6.47;2.92;;;29.70;91.40;;;;;;6334869;22;20069;-77
2022/08/25 10:53:45;;;;;;;8.20;2.92;;;29.80;91.40;;;;;;6334618;22;20010;-77
2022/08/25 10:56:19;;;;;;;5.28;3.08;;;29.90;91.10;;;;;;6333569;22;20048;-75
2022/08/25 10:59:09;;;;;;;3.10;2.78;;;30.00;91.00;;;;;;6334323;22;20420;-75
2022/08/25 11:01:43;;;;;;;7.38;2.67;;;30.10;90.90;;;;;;6335147;22;20010;-76
2022/08/25 11:04:18;;;;;;;3.10;2.80;;;30.10;90.90;;;;;;6335432;22;20003;-76
2022/08/25 11:06:54;;;;;;;8.55;3.10;;;30.20;90.80;;;;;;6335402;22;20076;-74
2022/08/25 11:09:26;;;;;;;6.63;3.10;;;30.30;90.40;;;;;;6332956;22;20326;-76
2022/08/25 11:12:41;;;;;;;16.60;3.05;;;30.30;90.70;;;;;;6334049;22;20056;-76
2022/08/25 11:15:18;;;;;;;3.80;2.97;;;30.40;90.50;;;;;;6296373;22;20003;-76
2022/08/25 11:18:05;;;;;;;5.07;2.95;;;30.50;89.90;;;;;;6334302;22;20041;-76
2022/08/25 11:20:55;;;;;;;2.80;2.50;;;30.60;89.60;;;;;;6333843;22;20044;-76
2022/08/25 11:23:40;;;;;;;4.47;2.85;;;30.70;88.70;;;;;;6334581;22;20373;-75
2022/08/25 11:26:11;;;;;;;9.80;3.17;;;30.70;88.20;;;;;;6335837;22;20011;-75
2022/08/25 11:28:58;;;;;;;4.65;3.00;;;30.70;88.00;;;;;;6336360;22;20018;-75
2022/08/25 11:31:26;;;;;;;4.15;2.83;;;30.80;87.80;;;;;;6336027;22;20487;-75
2022/08/25 11:33:58;;;;;;;2.97;2.63;;;30.80;86.60;;;;;;6336074;22;19999;-77
2022/08/25 11:36:31;;;;;;;2.95;2.50;;;30.90;87.60;;;;;;6336234;22;20445;-76
2022/08/25 11:39:19;;;;;;;8.73;2.95;;;30.90;87.80;;;;;;6336568;22;20076;-76
2022/08/25 11:42:15;;;;;;;3.10;2.80;;;30.90;86.00;;;;;;6335897;22;20040;-76
2022/08/25 11:45:06;;;;;;;2.63;2.42;;;30.90;85.00;;;;;;6336752;22;20002;-76
2022/08/25 11:47:50;;;;;;;4.57;2.85;;;30.90;85.00;;;;;;6335609;22;20011;-75
2022/08/25 11:50:54;;;;;;;2.50;2.30;;;30.90;85.60;;;;;;6326501;22;20076;-76
2022/08/25 11:53:25;;;;;;;3.03;2.60;;;30.90;85.80;;;;;;6333778;22;20003;-75
2022/08/25 11:56:01;;;;;;;4.72;2.85;;;31.00;84.50;;;;;;6335751;22;20011;-75
2022/08/25 11:58:49;;;;;;;5.13;2.60;;;31.00;85.10;;;;;;6333763;22;20033;-75
2022/08/25 12:01:39;;;;;;;4.97;2.83;;;31.10;84.80;;;;;;6335048;22;20378;-76
2022/08/25 12:04:41;;;;;;;3.65;2.38;;;31.30;84.20;;;;;;6335839;22;20010;-76
2022/08/25 12:07:09;;;;;;;2.95;2.38;;;31.30;84.50;;;;;;6328225;22;19999;-75
2022/08/25 12:09:50;;;;;;;2.50;2.30;;;31.40;83.70;;;;;;6335731;22;20007;-76
2022/08/25 12:12:36;;;;;;;3.22;2.85;;;31.40;81.80;;;;;;6332603;22;20009;-74
2022/08/25 12:15:19;;;;;;;4.75;2.60;;;31.50;82.30;;;;;;6335534;22;20048;-74
2022/08/25 12:18:23;;;;;;;3.17;2.75;;;31.50;82.00;;;;;;6336319;22;20507;-75
2022/08/25 12:20:51;;;;;;;5.10;2.75;;;31.60;79.80;;;;;;6336445;22;20006;-74
2022/08/25 12:23:31;;;;;;;5.95;3.58;;;31.60;80.90;;;;;;6335411;22;20009;-75
2022/08/25 12:26:06;;;;;;;7.38;2.83;;;31.60;78.70;;;;;;6335592;22;20411;-75
2022/08/25 12:29:04;;;;;;;2.60;2.30;;;31.60;79.20;;;;;;6334406;22;20331;-74
2022/08/25 12:31:52;;;;;;;2.72;2.53;;;31.70;79.50;;;;;;6336585;22;20013;-76
2022/08/25 12:34:35;;;;;;;3.40;2.22;;;31.80;78.80;;;;;;6336589;22;20006;-74
2022/08/25 12:37:12;;;;;;;5.05;2.47;;;31.90;79.20;;;;;;6337225;22;19995;-75
2022/08/25 12:39:45;;;;;;;2.50;2.30;;;32.10;77.60;;;;;;6338397;22;20447;-74
2022/08/25 12:42:42;;;;;;;5.03;2.60;;;32.20;78.10;;;;;;6338380;22;20005;-75
2022/08/25 12:45:22;;;;;;;6.35;2.67;;;32.20;77.90;;;;;;6337172;22;20005;-74
2022/08/25 12:47:49;;;;;;;2.47;2.28;;;32.30;78.20;;;;;;6336948;22;20014;-74
2022/08/25 12:50:26;;;;;;;5.80;2.75;;;32.30;76.70;;;;;;6335644;22;19995;-76
2022/08/25 12:52:58;;;;;;;2.63;2.42;;;32.40;77.00;;;;;;6336997;22;20003;-76
2022/08/25 12:55:25;;;;;;;3.05;2.40;;;32.40;76.20;;;;;;6336804;22;20007;-75
2022/08/25 12:58:00;;;;;;;3.55;2.30;;;32.40;75.20;;;;;;6336194;22;20401;-76
2022/08/25 13:00:31;;;;;;;2.50;2.30;;;32.40;76.00;;;;;;6336608;22;20010;-76
2022/08/25 13:03:12;;;;;;;2.65;2.28;;;32.40;77.00;;;;;;6337377;22;20047;-75
2022/08/25 13:05:54;;;;;;;2.85;2.53;;;32.40;74.50;;;;;;6336042;22;20010;-75
2022/08/25 13:08:40;;;;;;;4.63;2.40;;;32.40;74.60;;;;;;6336074;22;20098;-75
2022/08/25 13:11:37;;;;;;;3.33;2.70;;;32.40;75.70;;;;;;6336439;22;20128;-74
2022/08/25 13:14:09;;;;;;;3.22;2.47;;;32.60;74.50;;;;;;6339466;22;20427;-74